Time;durP1;ratioP1;P1;durP2;ratioP2;P2;SDS_P1;SDS_P2;PMS_P1;PMS_P2;Temp;Humidity;BMP_temperature;BMP_pressure;BME280_temperature;BME280_humidity;BME280_pressure;Samples;Min_cycle;Max_cycle;Signal;HPM_P1;HPM_P2
2021/05/02 00:01:18;;;;;;;;;;;;;;;6.98;67.12;101132.81;1758962;81;20271;-84
2021/05/02 00:03:45;;;;;;;;;;;;;;;6.95;67.15;101130.08;1758993;81;20269;-85
2021/05/02 00:06:12;;;;;;;;;;;;;;;6.94;67.22;101126.55;1758808;81;20264;-83
2021/05/02 00:08:39;;;;;;;;;;;;;;;6.91;67.18;101119.00;1759040;81;21940;-83
2021/05/02 00:11:07;;;;;;;;;;;;;;;6.89;67.20;101120.62;1758857;81;20717;-83
2021/05/02 00:13:34;;;;;;;;;;;;;;;6.87;67.21;101123.58;1758822;81;20617;-83
2021/05/02 00:16:01;;;;;;;;;;;;;;;6.86;67.21;101116.16;1758865;81;21127;-83
2021/05/02 00:18:28;;;;;;;;;;;;;;;6.86;67.21;101116.58;1758871;81;20248;-83
2021/05/02 00:20:57;;;;;;;;;;;;;;;6.84;67.20;101106.45;1758907;81;21174;-83
2021/05/02 00:23:23;;;;;;;;;;;;;;;6.83;67.20;101106.84;1758911;81;20216;-84
2021/05/02 00:25:50;;;;;;;;;;;;;;;6.80;67.20;101108.92;1759107;81;20255;-84
2021/05/02 00:28:17;;;;;;;;;;;;;;;6.80;67.17;101110.65;1759034;81;20370;-84
2021/05/02 00:30:44;;;;;;;;;;;;;;;6.81;67.13;101111.11;1759018;81;20232;-84
2021/05/02 00:33:11;;;;;;;;;;;;;;;6.79;67.10;101113.69;1758982;81;22020;-84
2021/05/02 00:35:38;;;;;;;;;;;;;;;6.80;67.15;101108.03;1758861;81;21041;-84
2021/05/02 00:38:05;;;;;;;;;;;;;;;6.78;67.18;101106.65;1758807;81;20600;-83
2021/05/02 00:40:35;;;;;;;;;;;;;;;6.77;67.19;101098.30;1758943;81;20313;-84
2021/05/02 00:43:08;;;;;;;;;;;;;;;6.76;67.22;101104.37;1758703;81;20398;-83
2021/05/02 00:45:59;;;;;;;;;;;;;;;6.74;67.34;101107.34;1758233;81;21974;-85
2021/05/02 00:48:30;;;;;;;;;;;;;;;6.71;67.33;101104.56;1759013;81;20310;-85
2021/05/02 00:51:01;;;;;;;;;;;;;;;6.71;67.33;101106.30;1758840;81;20279;-85
2021/05/02 00:53:48;;;;;;;;;;;;;;;6.69;67.39;101111.87;1758838;80;20303;-84
2021/05/02 00:56:19;;;;;;;;;;;;;;;6.70;67.44;101104.49;1758773;81;20275;-84
2021/05/02 00:59:06;;;;;;;;;;;;;;;6.73;67.47;101100.72;1758970;81;22886;-85
2021/05/02 01:01:43;;;;;;;;;;;;;;;6.71;67.45;101095.41;1758879;81;20258;-84
2021/05/02 01:04:11;;;;;;;;;;;;;;;6.70;67.45;101096.64;1758797;81;20283;-83
2021/05/02 01:06:39;;;;;;;;;;;;;;;6.68;67.49;101093.98;1758959;81;20477;-83
2021/05/02 01:09:06;;;;;;;;;;;;;;;6.66;67.54;101087.75;1758791;81;20295;-83
2021/05/02 01:11:35;;;;;;;;;;;;;;;6.63;67.55;101090.25;1758804;81;21953;-83
2021/05/02 01:14:02;;;;;;;;;;;;;;;6.61;67.65;101087.98;1758576;81;20389;-83
2021/05/02 01:16:31;;;;;;;;;;;;;;;6.60;67.75;101088.36;1758710;81;20229;-83
2021/05/02 01:18:58;;;;;;;;;;;;;;;6.60;67.80;101088.79;1725276;81;20316;-83
2021/05/02 01:21:32;;;;;;;;;;;;;;;6.60;67.86;101087.06;1758658;81;20276;-82
2021/05/02 01:23:59;;;;;;;;;;;;;;;6.61;67.86;101074.48;1758859;81;22810;-83
2021/05/02 01:26:26;;;;;;;;;;;;;;;6.62;67.87;101072.75;1758631;81;20264;-83
2021/05/02 01:28:55;;;;;;;;;;;;;;;6.62;67.90;101064.91;1758869;81;20561;-83
2021/05/02 01:31:21;;;;;;;;;;;;;;;6.62;67.99;101070.13;1758739;81;20502;-83
2021/05/02 01:33:48;;;;;;;;;;;;;;;6.61;68.02;101071.86;1758794;81;20252;-82
2021/05/02 01:36:15;;;;;;;;;;;;;;;6.59;68.09;101062.17;1758938;81;21956;-82
2021/05/02 01:38:42;;;;;;;;;;;;;;;6.58;68.12;101053.83;1758763;81;21187;-82
2021/05/02 01:41:09;;;;;;;;;;;;;;;6.53;68.16;101054.94;1758732;81;20581;-83
2021/05/02 01:43:36;;;;;;;;;;;;;;;6.49;68.24;101051.66;1758766;81;20373;-82
2021/05/02 01:46:04;;;;;;;;;;;;;;;6.43;68.31;101054.89;1758751;81;20264;-82
2021/05/02 01:48:31;;;;;;;;;;;;;;;6.36;68.44;101044.08;1758806;81;21915;-82
2021/05/02 01:51:02;;;;;;;;;;;;;;;6.31;68.60;101038.66;1758739;81;20804;-82
2021/05/02 01:53:29;;;;;;;;;;;;;;;6.26;68.66;101047.98;1758680;81;20652;-82
2021/05/02 01:55:55;;;;;;;;;;;;;;;6.22;68.76;101049.56;1758782;81;20514;-82
2021/05/02 01:58:23;;;;;;;;;;;;;;;6.22;69.06;101046.06;1750071;81;20280;-82
2021/05/02 02:00:56;;;;;;;;;;;;;;;6.23;69.12;101047.45;1758832;81;21897;-82
2021/05/02 02:03:23;;;;;;;;;;;;;;;6.26;69.18;101039.27;1758788;81;20506;-82
2021/05/02 02:05:50;;;;;;;;;;;;;;;6.26;69.19;101025.77;1758893;81;20312;-83
2021/05/02 02:08:18;;;;;;;;;;;;;;;6.26;69.27;101020.54;1758766;81;20313;-82
2021/05/02 02:10:47;;;;;;;;;;;;;;;6.25;69.36;101014.84;1758635;81;20347;-82
2021/05/02 02:13:16;;;;;;;;;;;;;;;6.23;69.50;101016.08;1758518;81;21896;-83
2021/05/02 02:15:43;;;;;;;;;;;;;;;6.20;69.49;101022.45;1758828;81;20241;-83
2021/05/02 02:18:12;;;;;;;;;;;;;;;6.18;69.59;101012.34;1758841;81;20280;-83
2021/05/02 02:20:41;;;;;;;;;;;;;;;6.17;69.68;101007.03;1758812;81;20513;-83
2021/05/02 02:23:20;;;;;;;;;;;;;;;6.12;69.77;101004.22;1758946;81;20299;-82
2021/05/02 02:25:48;;;;;;;;;;;;;;;6.12;69.88;101004.61;1743202;81;22112;-81
2021/05/02 02:28:17;;;;;;;;;;;;;;;6.10;70.04;100992.80;1758634;81;20562;-82
2021/05/02 02:30:48;;;;;;;;;;;;;;;6.06;70.14;100985.62;1758822;81;20340;-82
2021/05/02 02:33:15;;;;;;;;;;;;;;;6.05;70.14;100979.05;1758518;81;20304;-82
2021/05/02 02:35:48;;;;;;;;;;;;;;;6.03;70.22;100981.16;1758901;81;20577;-82
2021/05/02 02:38:15;;;;;;;;;;;;;;;6.02;70.34;100986.30;1758752;80;21909;-82
2021/05/02 02:40:42;;;;;;;;;;;;;;;6.01;70.43;100997.59;1758634;81;20306;-82
2021/05/02 02:43:10;;;;;;;;;;;;;;;6.01;70.52;100988.45;1758755;81;20471;-82
2021/05/02 02:45:38;;;;;;;;;;;;;;;6.02;70.66;100980.69;1724874;81;20401;-82
2021/05/02 02:48:05;;;;;;;;;;;;;;;6.04;70.75;100971.59;1758892;81;20296;-82
2021/05/02 02:50:32;;;;;;;;;;;;;;;6.03;70.75;100969.81;1758922;81;21902;-82
2021/05/02 02:53:04;;;;;;;;;;;;;;;6.05;70.84;100965.98;1758570;81;20302;-82
2021/05/02 02:55:33;;;;;;;;;;;;;;;6.05;70.96;100964.25;1758808;81;20334;-82
2021/05/02 02:58:02;;;;;;;;;;;;;;;6.07;70.97;100970.44;1758689;81;20770;-82
2021/05/02 03:00:31;;;;;;;;;;;;;;;6.07;71.06;100968.25;1758380;81;20311;-82
2021/05/02 03:03:09;;;;;;;;;;;;;;;6.07;71.05;100956.06;1758660;81;22004;-82
2021/05/02 03:05:37;;;;;;;;;;;;;;;6.09;71.13;100949.61;1758747;81;20331;-82
2021/05/02 03:08:05;;;;;;;;;;;;;;;6.09;71.16;100958.75;1758655;81;20260;-82
2021/05/02 03:10:32;;;;;;;;;;;;;;;6.07;71.16;100957.80;1758736;81;20291;-82
2021/05/02 03:13:08;;;;;;;;;;;;;;;6.07;71.31;100958.68;1758473;81;20324;-82
2021/05/02 03:15:39;;;;;;;;;;;;;;;6.07;71.31;100951.26;1764586;81;21963;-81
2021/05/02 03:18:09;;;;;;;;;;;;;;;6.09;71.31;100941.34;1756340;81;20376;-81
2021/05/02 03:20:37;;;;;;;;;;;;;;;6.12;71.29;100941.89;1762031;81;20227;-81
2021/05/02 03:23:16;;;;;;;;;;;;;;;6.15;71.35;100945.96;1762207;81;20287;-82
2021/05/02 03:25:44;;;;;;;;;;;;;;;6.17;71.32;100942.58;1762386;81;20259;-82
2021/05/02 03:28:17;;;;;;;;;;;;;;;6.21;71.27;100951.07;1762257;81;21889;-82
2021/05/02 03:30:45;;;;;;;;;;;;;;;6.26;71.21;100953.88;1762270;81;20475;-82
2021/05/02 03:33:13;;;;;;;;;;;;;;;6.29;71.14;100948.80;1762179;81;20553;-82
2021/05/02 03:35:45;;;;;;;;;;;;;;;6.33;71.08;100935.46;1762400;81;20311;-83
2021/05/02 03:38:42;;;;;;;;;;;;;;;6.37;71.00;100928.23;1762270;81;20542;-81
2021/05/02 03:41:09;;;;;;;;;;;;;;;6.40;70.92;100921.81;1697745;84;22868;-82
2021/05/02 03:43:37;;;;;;;;;;;;;;;6.46;70.78;100917.27;1697906;84;20301;-82
2021/05/02 03:46:04;;;;;;;;;;;;;;;6.49;70.73;100927.45;1697806;84;20313;-81
2021/05/02 03:48:32;;;;;;;;;;;;;;;6.53;70.59;100922.86;1697856;84;20356;-82
2021/05/02 03:50:59;;;;;;;;;;;;;;;6.58;70.47;100925.66;1697791;84;20300;-82
2021/05/02 03:53:26;;;;;;;;;;;;;;;6.63;70.33;100926.77;1697737;84;21957;-83
2021/05/02 03:55:53;;;;;;;;;;;;;;;6.69;70.20;100933.56;1697914;84;20360;-82
2021/05/02 03:58:20;;;;;;;;;;;;;;;6.72;69.99;100941.56;1697755;84;20673;-81
2021/05/02 04:00:47;;;;;;;;;;;;;;;6.77;69.92;100942.63;1697688;84;20577;-81
2021/05/02 04:03:14;;;;;;;;;;;;;;;6.83;69.70;100942.00;1697771;84;20761;-82
2021/05/02 04:08:20;;;;;;;;;;;;;;;6.98;69.38;100954.84;1813287;77;20204;-83
2021/05/02 04:10:47;;;;;;;;;;;;;;;6.98;69.12;100960.09;1799073;79;20785;-84
2021/05/02 04:13:14;;;;;;;;;;;;;;;6.99;68.90;100958.84;1799097;79;21838;-83
2021/05/02 04:15:41;;;;;;;;;;;;;;;7.02;68.85;100946.33;1799051;79;20337;-84
2021/05/02 04:18:08;;;;;;;;;;;;;;;7.07;68.59;100935.61;1799193;79;20325;-84
2021/05/02 04:20:35;;;;;;;;;;;;;;;7.12;68.42;100938.02;1799113;79;20402;-84
2021/05/02 04:23:02;;;;;;;;;;;;;;;7.12;68.23;100936.71;1799189;79;20296;-84
2021/05/02 04:25:28;;;;;;;;;;;;;;;7.15;68.00;100938.16;1799105;79;22732;-84
2021/05/02 04:27:56;;;;;;;;;;;;;;;7.18;67.87;100934.77;1799076;79;20296;-84
2021/05/02 04:30:30;;;;;;;;;;;;;;;7.18;67.68;100925.17;1766037;79;20265;-84
2021/05/02 04:32:58;;;;;;;;;;;;;;;7.20;67.54;100927.86;1799179;79;20245;-84
2021/05/02 04:35:25;;;;;;;;;;;;;;;7.23;67.43;100940.20;1799219;79;20595;-82
2021/05/02 04:40:49;;;;;;;;;;;;;;;7.22;67.02;100938.41;1672908;83;20367;-83
2021/05/02 04:43:27;;;;;;;;;;;;;;;7.28;66.97;100933.41;1813195;78;20349;-83
2021/05/02 04:45:54;;;;;;;;;;;;;;;7.22;66.82;100927.93;1799041;79;20333;-84
2021/05/02 04:48:21;;;;;;;;;;;;;;;7.23;66.76;100928.00;1798991;79;22194;-83
2021/05/02 04:50:48;;;;;;;;;;;;;;;7.25;66.63;100921.52;1799018;79;20313;-84
2021/05/02 04:53:16;;;;;;;;;;;;;;;7.26;66.50;100920.25;1798935;79;20249;-83
2021/05/02 04:55:43;;;;;;;;;;;;;;;7.27;66.38;100922.05;1798991;79;20767;-82
2021/05/02 04:58:10;;;;;;;;;;;;;;;7.26;66.24;100920.25;1798869;79;20304;-83
2021/05/02 05:00:37;;;;;;;;;;;;;;;7.28;66.19;100927.78;1799068;79;22170;-82
2021/05/02 05:03:05;;;;;;;;;;;;;;;7.33;66.02;100929.27;1798833;79;20571;-83
2021/05/02 05:05:32;;;;;;;;;;;;;;;7.39;65.85;100938.67;1798916;79;20618;-82
2021/05/02 05:07:59;;;;;;;;;;;;;;;7.38;65.60;100931.23;1798877;79;20868;-83
2021/05/02 05:10:26;;;;;;;;;;;;;;;7.38;65.50;100935.17;1799017;79;20242;-83
2021/05/02 05:12:53;;;;;;;;;;;;;;;7.40;65.20;100935.23;1799006;79;21832;-83
2021/05/02 05:15:19;;;;;;;;;;;;;;;7.39;65.10;100937.36;1798914;79;20306;-82
2021/05/02 05:17:46;;;;;;;;;;;;;;;7.37;65.04;100940.34;1799050;79;20623;-83
2021/05/02 05:20:13;;;;;;;;;;;;;;;7.38;65.02;100940.41;1798190;78;20348;-84
2021/05/02 05:22:40;;;;;;;;;;;;;;;7.45;65.07;100945.89;1798692;79;20517;-83
2021/05/02 05:25:08;;;;;;;;;;;;;;;7.50;64.85;100945.66;1785008;79;21902;-82
2021/05/02 05:27:41;;;;;;;;;;;;;;;7.51;64.66;100939.19;1776633;79;21121;-83
2021/05/02 05:30:18;;;;;;;;;;;;;;;7.54;64.50;100941.02;1780919;79;20400;-82
2021/05/02 05:32:45;;;;;;;;;;;;;;;7.57;64.44;100937.23;1798030;79;20633;-82
2021/05/02 05:35:13;;;;;;;;;;;;;;;7.58;64.21;100936.38;1781280;80;20316;-82
2021/05/02 05:37:42;;;;;;;;;;;;;;;7.59;64.04;100931.63;1784716;79;22886;-82
2021/05/02 05:40:12;;;;;;;;;;;;;;;7.63;63.99;100933.96;1786110;80;20351;-81
2021/05/02 05:42:45;;;;;;;;;;;;;;;7.65;63.86;100927.94;1776932;79;20293;-81
2021/05/02 05:45:13;;;;;;;;;;;;;;;7.70;63.74;100924.20;1769172;80;20795;-82
2021/05/02 05:47:43;;;;;;;;;;;;;;;7.72;63.56;100918.61;1778957;80;20249;-81
2021/05/02 05:50:13;;;;;;;;;;;;;;;7.76;63.29;100921.39;1771906;80;21893;-82
2021/05/02 05:52:44;;;;;;;;;;;;;;;7.81;63.22;100919.36;1755266;80;20480;-81
2021/05/02 05:55:28;;;;;;;;;;;;;;;7.86;63.00;100921.75;1777992;80;20430;-81
2021/05/02 05:57:40;;;;;;;;;;;;;;;7.89;62.71;100921.87;1760331;80;20302;-82
2021/05/02 06:00:15;;;;;;;;;;;;;;;7.94;62.62;100921.22;1770612;80;20311;-81
2021/05/02 06:02:37;;;;;;;;;;;;;;;7.98;62.48;100913.95;1770292;80;22890;-81
2021/05/02 06:05:04;;;;;;;;;;;;;;;8.05;62.26;100912.86;1763892;80;20821;-84
2021/05/02 06:07:31;;;;;;;;;;;;;;;8.11;62.04;100912.69;1758323;81;20293;-82
2021/05/02 06:09:58;;;;;;;;;;;;;;;8.15;61.80;100910.65;1758099;81;20323;-81
2021/05/02 06:12:25;;;;;;;;;;;;;;;8.20;61.39;100917.36;1758422;81;20250;-81
2021/05/02 06:15:22;;;;;;;;;;;;;;;8.25;61.48;100906.63;1758138;81;22862;-82
2021/05/02 06:17:49;;;;;;;;;;;;;;;8.32;61.08;100909.95;1758077;79;20769;-82
2021/05/02 06:20:16;;;;;;;;;;;;;;;8.35;61.04;100901.30;1758367;80;20320;-82
2021/05/02 06:22:43;;;;;;;;;;;;;;;8.40;60.93;100902.80;1758360;80;20413;-82
2021/05/02 06:25:11;;;;;;;;;;;;;;;8.46;60.80;100898.67;1758051;80;20590;-81
2021/05/02 06:27:40;;;;;;;;;;;;;;;8.49;60.35;100893.55;1758375;80;22889;-81
2021/05/02 06:30:07;;;;;;;;;;;;;;;8.49;60.31;100889.61;1757737;81;20996;-82
2021/05/02 06:32:34;;;;;;;;;;;;;;;8.53;60.17;100890.19;1772089;80;20288;-81
2021/05/02 06:35:01;;;;;;;;;;;;;;;8.53;59.93;100877.50;1789439;79;20590;-81
2021/05/02 06:37:30;;;;;;;;;;;;;;;8.55;59.92;100877.13;1779237;80;20236;-82
2021/05/02 06:39:59;;;;;;;;;;;;;;;8.55;59.74;100874.08;1762094;80;21945;-82
2021/05/02 06:42:27;;;;;;;;;;;;;;;8.54;59.56;100872.74;1778714;80;20613;-82
2021/05/02 06:44:54;;;;;;;;;;;;;;;8.50;59.50;100867.80;1772776;80;20270;-82
2021/05/02 06:47:20;;;;;;;;;;;;;;;8.49;59.44;100859.88;1769218;80;20289;-78
2021/05/02 06:49:47;;;;;;;;;;;;;;;8.47;59.07;100855.00;1775104;80;20291;-77
2021/05/02 06:52:14;;;;;;;;;;;;;;;8.47;59.04;100855.88;1772933;80;22000;-78
2021/05/02 06:54:42;;;;;;;;;;;;;;;8.50;59.17;100855.09;1766245;80;20217;-78
2021/05/02 06:57:09;;;;;;;;;;;;;;;8.55;59.12;100855.72;1770398;80;20975;-78
2021/05/02 06:59:38;;;;;;;;;;;;;;;8.52;58.96;100859.96;1764541;80;20280;-78
2021/05/02 07:02:05;;;;;;;;;;;;;;;8.50;58.84;100853.77;1775461;80;20303;-78
2021/05/02 07:04:34;;;;;;;;;;;;;;;8.47;59.03;100840.14;1783235;80;21890;-78
2021/05/02 07:07:01;;;;;;;;;;;;;;;8.51;59.04;100843.77;1775698;80;20289;-77
2021/05/02 07:09:28;;;;;;;;;;;;;;;8.57;59.00;100833.48;1769421;80;20312;-78
2021/05/02 07:11:55;;;;;;;;;;;;;;;8.58;59.00;100836.98;1765737;80;20947;-77
2021/05/02 07:14:22;;;;;;;;;;;;;;;8.56;58.91;100833.91;1782477;80;20310;-78
2021/05/02 07:16:49;;;;;;;;;;;;;;;8.55;58.82;100825.55;1779728;80;21597;-78
2021/05/02 07:19:17;;;;;;;;;;;;;;;8.61;59.04;100825.30;1779606;80;21006;-78
2021/05/02 07:21:43;;;;;;;;;;;;;;;8.64;58.80;100826.30;1781353;80;20321;-78
2021/05/02 07:24:16;;;;;;;;;;;;;;;8.67;58.54;100832.97;1766801;80;20319;-79
2021/05/02 07:26:43;;;;;;;;;;;;;;;8.66;58.55;100823.72;1764270;80;20324;-79
2021/05/02 07:29:10;;;;;;;;;;;;;;;8.69;58.76;100835.22;1782808;80;22767;-77
2021/05/02 07:31:37;;;;;;;;;;;;;;;8.75;58.80;100832.80;1775050;80;20499;-77
2021/05/02 07:34:04;;;;;;;;;;;;;;;8.83;58.90;100843.97;1779494;80;20335;-80
2021/05/02 07:36:31;;;;;;;;;;;;;;;8.86;58.75;100855.87;1774593;80;20394;-75
2021/05/02 07:39:00;;;;;;;;;;;;;;;8.88;58.69;100843.72;1768697;80;20293;-77
2021/05/02 07:41:26;;;;;;;;;;;;;;;8.89;58.73;100834.98;1759489;80;21891;-81
2021/05/02 07:43:53;;;;;;;;;;;;;;;8.90;58.72;100844.66;1765060;81;21138;-82
2021/05/02 07:46:20;;;;;;;;;;;;;;;8.93;58.70;100831.61;1755326;81;20304;-82
2021/05/02 07:48:47;;;;;;;;;;;;;;;8.91;58.35;100822.80;1760990;81;21022;-82
2021/05/02 07:51:15;;;;;;;;;;;;;;;8.85;58.61;100819.55;1761295;81;20288;-82
2021/05/02 07:53:42;;;;;;;;;;;;;;;8.81;58.53;100823.34;1761276;81;21961;-82
2021/05/02 07:56:09;;;;;;;;;;;;;;;8.77;58.64;100809.66;1761278;81;21031;-82
2021/05/02 07:58:35;;;;;;;;;;;;;;;8.74;58.60;100813.94;1761229;81;20328;-83
2021/05/02 08:01:02;;;;;;;;;;;;;;;8.71;58.73;100815.16;1761975;81;20612;-83
2021/05/02 08:03:32;;;;;;;;;;;;;;;8.66;58.68;100814.11;1762025;81;20288;-82
2021/05/02 08:05:58;;;;;;;;;;;;;;;8.66;58.73;100813.23;1761981;81;23020;-82
2021/05/02 08:08:25;;;;;;;;;;;;;;;8.61;58.66;100809.12;1762161;81;20259;-82
2021/05/02 08:10:52;;;;;;;;;;;;;;;8.64;58.73;100802.67;1762279;81;20280;-82
2021/05/02 08:13:19;;;;;;;;;;;;;;;8.63;58.27;100806.13;1762180;81;20295;-82
2021/05/02 08:15:45;;;;;;;;;;;;;;;8.55;58.31;100801.94;1762175;81;20295;-82
2021/05/02 08:18:13;;;;;;;;;;;;;;;8.54;58.45;100805.41;1761928;81;21822;-82
2021/05/02 08:20:40;;;;;;;;;;;;;;;8.48;58.23;100799.94;1762191;81;20313;-82
2021/05/02 08:23:08;;;;;;;;;;;;;;;8.48;58.35;100802.56;1762156;81;20259;-82
2021/05/02 08:25:34;;;;;;;;;;;;;;;8.47;58.34;100804.73;1761993;81;20570;-82
2021/05/02 08:28:01;;;;;;;;;;;;;;;8.48;58.37;100793.37;1762161;81;20314;-82
2021/05/02 08:30:28;;;;;;;;;;;;;;;8.51;58.02;100790.87;1762145;81;22858;-83
2021/05/02 08:32:55;;;;;;;;;;;;;;;8.51;58.17;100799.17;1761961;81;20369;-83
2021/05/02 08:35:22;;;;;;;;;;;;;;;8.53;58.16;100790.50;1761969;81;20304;-83
2021/05/02 08:37:49;;;;;;;;;;;;;;;8.55;58.04;100780.06;1762138;81;20315;-83
2021/05/02 08:40:15;;;;;;;;;;;;;;;8.59;58.12;100783.25;1762120;81;20248;-83
2021/05/02 08:42:42;;;;;;;;;;;;;;;8.62;57.79;100782.48;1761531;81;22892;-83
2021/05/02 08:45:10;;;;;;;;;;;;;;;8.61;57.82;100780.69;1759136;81;20272;-83
2021/05/02 08:47:36;;;;;;;;;;;;;;;8.60;57.57;100786.36;1759159;81;20335;-83
2021/05/02 08:50:08;;;;;;;;;;;;;;;8.61;57.58;100782.00;1759084;81;20695;-83
2021/05/02 08:52:35;;;;;;;;;;;;;;;8.62;57.54;100772.87;1759057;81;20809;-83
2021/05/02 08:55:04;;;;;;;;;;;;;;;8.60;57.46;100768.00;1759078;81;21949;-83
2021/05/02 08:57:31;;;;;;;;;;;;;;;8.61;57.55;100771.50;1758998;81;21119;-83
2021/05/02 08:59:58;;;;;;;;;;;;;;;8.61;57.47;100776.32;1759190;81;20288;-83
2021/05/02 09:02:26;;;;;;;;;;;;;;;8.62;57.28;100762.37;1759056;81;20259;-83
2021/05/02 09:04:59;;;;;;;;;;;;;;;8.61;57.54;100754.45;1759201;81;20527;-83
2021/05/02 09:07:25;;;;;;;;;;;;;;;8.69;57.82;100757.80;1759081;81;21962;-83
2021/05/02 09:09:53;;;;;;;;;;;;;;;8.70;57.76;100743.83;1759155;81;21295;-82
2021/05/02 09:12:26;;;;;;;;;;;;;;;8.73;57.95;100751.81;1759187;81;20295;-82
2021/05/02 09:14:53;;;;;;;;;;;;;;;8.72;57.69;100747.39;1759136;81;21247;-82
2021/05/02 09:17:28;;;;;;;;;;;;;;;8.66;57.83;100736.70;1759118;81;20535;-82
2021/05/02 09:19:56;;;;;;;;;;;;;;;8.67;57.54;100749.00;1759143;81;21904;-82
2021/05/02 09:22:23;;;;;;;;;;;;;;;8.63;57.61;100736.59;1758789;81;20339;-82
2021/05/02 09:25:11;;;;;;;;;;;;;;;8.66;57.69;100743.27;1758961;81;20289;-82
2021/05/02 09:27:49;;;;;;;;;;;;;;;8.66;57.29;100724.89;1759216;81;21167;-82
2021/05/02 09:30:17;;;;;;;;;;;;;;;8.67;57.47;100718.82;1758840;81;20259;-82
2021/05/02 09:32:45;;;;;;;;;;;;;;;8.68;57.36;100721.02;1759455;81;22268;-82
2021/05/02 09:35:26;;;;;;;;;;;;;;;8.66;57.56;100714.83;1759230;81;21118;-82
2021/05/02 09:38:14;;;;;;;;;;;;;;;8.67;57.31;100712.26;1758285;81;20685;-82
2021/05/02 09:40:52;;;;;;;;;;;;;;;8.69;57.46;100707.03;1759155;81;20512;-82
2021/05/02 09:43:37;;;;;;;;;;;;;;;8.71;57.44;100706.27;1759260;81;20284;-81
2021/05/02 09:46:32;;;;;;;;;;;;;;;8.75;57.38;100706.82;1759384;81;22892;-82
2021/05/02 09:49:15;;;;;;;;;;;;;;;8.69;57.25;100697.45;1759425;81;20244;-82
2021/05/02 09:51:53;;;;;;;;;;;;;;;8.61;56.95;100691.05;1759415;81;20228;-83
2021/05/02 09:54:21;;;;;;;;;;;;;;;8.56;57.00;100689.60;1759325;81;21195;-83
2021/05/02 09:56:49;;;;;;;;;;;;;;;8.56;56.98;100682.16;1759435;81;20304;-83
2021/05/02 09:59:31;;;;;;;;;;;;;;;8.55;56.96;100682.99;1759435;81;21893;-83
2021/05/02 10:02:13;;;;;;;;;;;;;;;8.51;57.18;100675.44;1759363;81;20275;-83
2021/05/02 10:04:52;;;;;;;;;;;;;;;8.49;57.45;100669.69;1759249;81;20509;-83
2021/05/02 10:07:21;;;;;;;;;;;;;;;8.41;57.87;100669.41;1758338;81;20311;-83
2021/05/02 10:09:48;;;;;;;;;;;;;;;8.37;58.03;100668.81;1759350;81;20267;-82
2021/05/02 10:12:15;;;;;;;;;;;;;;;8.33;58.33;100663.00;1759378;81;21900;-82
2021/05/02 10:14:42;;;;;;;;;;;;;;;8.27;58.45;100656.25;1759134;81;21085;-83
2021/05/02 10:17:09;;;;;;;;;;;;;;;8.23;58.73;100645.20;1759048;81;20577;-82
2021/05/02 10:19:37;;;;;;;;;;;;;;;8.19;58.65;100658.63;1759471;80;20369;-83
2021/05/02 10:22:04;;;;;;;;;;;;;;;8.14;58.90;100661.51;1759186;81;20597;-82
2021/05/02 10:24:35;;;;;;;;;;;;;;;8.07;59.61;100668.30;1759312;81;21944;-88
2021/05/02 10:27:08;;;;;;;;;;;;;;;7.99;59.67;100664.50;1757942;81;20267;-86
2021/05/02 10:29:37;;;;;;;;;;;;;;;7.93;59.61;100662.56;1759294;81;20319;-82
2021/05/02 10:32:05;;;;;;;;;;;;;;;7.88;59.79;100673.33;1758986;81;20376;-82
2021/05/02 10:34:40;;;;;;;;;;;;;;;7.77;60.24;100669.02;1759118;81;20232;-82
2021/05/02 10:37:27;;;;;;;;;;;;;;;7.64;61.01;100668.12;1758454;81;22108;-81
2021/05/02 10:40:06;;;;;;;;;;;;;;;7.56;61.30;100663.00;1758908;81;20263;-81
2021/05/02 10:42:54;;;;;;;;;;;;;;;7.53;61.80;100673.39;1759014;81;20244;-81
2021/05/02 10:45:35;;;;;;;;;;;;;;;7.49;62.13;100677.63;1758800;81;20367;-82
2021/05/02 10:48:08;;;;;;;;;;;;;;;7.50;62.59;100671.96;1759042;81;20310;-82
2021/05/02 10:50:36;;;;;;;;;;;;;;;7.52;62.87;100689.50;1731073;81;21918;-83
2021/05/02 10:53:06;;;;;;;;;;;;;;;7.52;63.23;100665.05;1758934;81;20244;-82
2021/05/02 10:56:00;;;;;;;;;;;;;;;7.53;63.24;100679.94;1759192;81;20546;-82
2021/05/02 10:58:29;;;;;;;;;;;;;;;7.51;63.27;100677.27;1759051;81;20437;-82
2021/05/02 11:01:00;;;;;;;;;;;;;;;7.41;63.76;100679.05;1758820;81;20304;-83
2021/05/02 11:03:40;;;;;;;;;;;;;;;7.17;63.98;100681.26;1758927;81;22791;-83
2021/05/02 11:06:14;;;;;;;;;;;;;;;6.99;65.04;100680.13;1758959;81;21092;-83
2021/05/02 11:08:49;;;;;;;;;;;;;;;6.89;65.23;100671.86;1759002;81;20833;-83
2021/05/02 11:11:33;;;;;;;;;;;;;;;6.81;66.66;100691.19;1759113;81;20542;-83
2021/05/02 11:14:18;;;;;;;;;;;;;;;6.56;68.48;100682.80;1759158;81;20352;-82
2021/05/02 11:16:46;;;;;;;;;;;;;;;6.32;67.40;100692.72;1759039;81;21963;-82
2021/05/02 11:19:18;;;;;;;;;;;;;;;6.14;68.17;100683.72;1759015;81;20571;-82
2021/05/02 11:21:51;;;;;;;;;;;;;;;6.06;69.72;100673.77;1755021;81;20232;-82
2021/05/02 11:24:19;;;;;;;;;;;;;;;6.06;70.58;100678.57;1758739;81;20363;-82
2021/05/02 11:26:58;;;;;;;;;;;;;;;6.08;70.61;100676.95;1759122;81;20224;-83
2021/05/02 11:29:35;;;;;;;;;;;;;;;6.12;70.50;100670.09;1758564;80;22064;-82
2021/05/02 11:32:04;;;;;;;;;;;;;;;6.15;70.81;100669.81;1758613;80;21090;-83
2021/05/02 11:34:51;;;;;;;;;;;;;;;6.14;71.00;100661.52;1758814;81;20303;-84
2021/05/02 11:37:46;;;;;;;;;;;;;;;6.11;72.42;100653.95;1663984;85;20416;-82
2021/05/02 11:40:31;;;;;;;;;;;;;;;6.06;72.20;100654.17;1663917;85;20263;-82
2021/05/02 11:43:11;;;;;;;;;;;;;;;5.94;72.55;100650.19;1664067;85;21527;-83
2021/05/02 11:45:43;;;;;;;;;;;;;;;5.85;74.29;100649.38;1669035;86;20538;-82
2021/05/02 11:51:04;;;;;;;;;;;;;;;5.80;78.05;100629.11;1842781;76;20244;-83
2021/05/02 11:53:39;;;;;;;;;;;;;;;5.79;77.72;100623.00;1810741;77;20299;-83
2021/05/02 11:56:20;;;;;;;;;;;;;;;5.84;76.38;100623.21;1778570;79;21889;-83
2021/05/02 11:58:48;;;;;;;;;;;;;;;5.84;75.94;100614.95;1786921;80;20281;-83
2021/05/02 12:01:20;;;;;;;;;;;;;;;5.80;76.94;100631.33;1791531;80;20326;-83
2021/05/02 12:03:47;;;;;;;;;;;;;;;5.54;82.41;100623.69;1791675;79;20784;-82
2021/05/02 12:06:29;;;;;;;;;;;;;;;5.47;81.50;100605.97;1786554;79;20554;-82
2021/05/02 12:08:56;;;;;;;;;;;;;;;5.44;82.17;100610.66;1766929;79;22508;-81
2021/05/02 12:11:23;;;;;;;;;;;;;;;5.35;81.87;100595.90;1791571;80;20302;-81
2021/05/02 12:13:52;;;;;;;;;;;;;;;5.20;83.91;100605.64;1791637;78;20315;-82
2021/05/02 12:16:22;;;;;;;;;;;;;;;5.19;84.58;100605.17;1791627;79;20341;-82
2021/05/02 12:18:54;;;;;;;;;;;;;;;5.17;88.26;100593.36;1791471;80;20560;-82
2021/05/02 12:21:36;;;;;;;;;;;;;;;5.21;88.13;100596.58;1791068;77;21987;-82
2021/05/02 12:24:23;;;;;;;;;;;;;;;5.22;88.80;100580.53;1791187;79;20263;-82
2021/05/02 12:27:06;;;;;;;;;;;;;;;5.16;87.83;100564.59;1713651;83;20656;-80
2021/05/02 12:29:52;;;;;;;;;;;;;;;5.09;89.62;100567.75;1806776;79;20290;-82
2021/05/02 12:32:19;;;;;;;;;;;;;;;4.96;88.91;100572.44;1787791;80;21045;-82
2021/05/02 12:34:51;;;;;;;;;;;;;;;5.00;88.50;100557.39;1755016;80;22081;-82
2021/05/02 12:37:20;;;;;;;;;;;;;;;4.97;89.68;100560.28;1787377;80;20732;-81
2021/05/02 12:39:51;;;;;;;;;;;;;;;4.95;90.34;100561.93;1784491;80;20237;-80
2021/05/02 12:42:32;;;;;;;;;;;;;;;4.98;90.27;100559.47;1761726;80;20729;-81
2021/05/02 12:45:04;;;;;;;;;;;;;;;4.95;90.66;100561.93;1762777;80;20297;-81
2021/05/02 12:47:31;;;;;;;;;;;;;;;4.94;90.71;100567.98;1759393;81;21156;-82
2021/05/02 12:50:04;;;;;;;;;;;;;;;4.91;90.84;100550.89;1759109;81;20551;-82
2021/05/02 12:52:37;;;;;;;;;;;;;;;4.83;91.26;100554.04;1756920;81;20271;-80
2021/05/02 12:58:07;;;;;;;;;;;;;;;4.81;91.90;100554.38;1896157;74;20516;-82
2021/05/02 13:00:53;;;;;;;;;;;;;;;4.78;91.28;100552.05;1902037;75;20226;-81
2021/05/02 13:03:28;;;;;;;;;;;;;;;4.76;93.13;100553.70;1898798;75;22146;-81
2021/05/02 13:06:07;;;;;;;;;;;;;;;4.67;93.46;100572.02;1902072;75;21073;-80
2021/05/02 13:08:35;;;;;;;;;;;;;;;4.59;95.69;100549.02;1901886;75;20293;-80
2021/05/02 13:11:22;;;;;;;;;;;;;;;4.56;96.44;100547.17;1901961;75;20222;-80
2021/05/02 13:14:09;;;;;;;;;;;;;;;4.56;98.76;100557.98;1891712;75;20231;-79
2021/05/02 13:16:44;;;;;;;;;;;;;;;4.55;99.67;100546.68;1893129;75;21793;-80